DLH9TX EDSB-EDLP
Flight info
| Callsign | DLH9TX |
|---|---|
| Flight time | 0h 37m |
| Altitude | 22000 |
| Route | GAGSI2Z GAGSI DCT BADLI/N0282F090 Q762 OLGAD/N0413F220 DCT RAVKI/N0406F210 DCT SLD DCT PELUN PELUN3H |
| Aircraft | A320/M-SDE3FGHIRWY/LB1 |
Departure
| Time | 2026-05-05 16:46 |
|---|---|
| Airport | Karlsruhe Baden-Baden Airport (EDSB) |
Arrival
| Time | 2026-05-05 17:23 |
|---|---|
| Airport | Paderborn Lippstadt Airport (EDLP) |
| Time | Latitude | Longitude | Altitude | Speed | Heading |
|---|---|---|---|---|---|
| 2026-05-05 16:08 | 48.78168 | 8.08909 | 408 ft | 0 kts | 159° |
| 2026-05-05 16:39 | 48.78166 | 8.08890 | 410 ft | 5 kts | 288° |
| 2026-05-05 16:39 | 48.78222 | 8.08880 | 408 ft | 15 kts | 40° |
| 2026-05-05 16:40 | 48.78337 | 8.08989 | 408 ft | 22 kts | 32° |
| 2026-05-05 16:40 | 48.78473 | 8.09115 | 412 ft | 24 kts | 31° |
| 2026-05-05 16:40 | 48.78616 | 8.09250 | 412 ft | 22 kts | 32° |
| 2026-05-05 16:40 | 48.78691 | 8.09303 | 412 ft | 11 kts | 352° |
| 2026-05-05 16:41 | 48.78740 | 8.09217 | 413 ft | 11 kts | 303° |
| 2026-05-05 16:41 | 48.78792 | 8.09147 | 413 ft | 10 kts | 8° |
| 2026-05-05 16:41 | 48.78825 | 8.09177 | 413 ft | 0 kts | 33° |
| 2026-05-05 16:42 | 48.78851 | 8.09201 | 413 ft | 6 kts | 32° |
| 2026-05-05 16:43 | 48.78859 | 8.09209 | 410 ft | 0 kts | 32° |
| 2026-05-05 16:43 | 48.78859 | 8.09210 | 410 ft | 0 kts | 32° |
| 2026-05-05 16:43 | 48.78890 | 8.09239 | 411 ft | 10 kts | 32° |
| 2026-05-05 16:44 | 48.78994 | 8.09298 | 412 ft | 18 kts | 345° |
| 2026-05-05 16:44 | 48.79048 | 8.09186 | 409 ft | 13 kts | 303° |
| 2026-05-05 16:44 | 48.79030 | 8.09076 | 413 ft | 9 kts | 213° |
| 2026-05-05 16:44 | 48.79024 | 8.09071 | 413 ft | 0 kts | 212° |
| 2026-05-05 16:45 | 48.78990 | 8.09038 | 410 ft | 26 kts | 212° |
| 2026-05-05 16:45 | 48.78601 | 8.08674 | 413 ft | 101 kts | 212° |
| 2026-05-05 16:45 | 48.77830 | 8.07951 | 413 ft | 157 kts | 212° |
| 2026-05-05 16:46 | 48.77184 | 8.07329 | 632 ft | 168 kts | 214° |
| 2026-05-05 16:46 | 48.76211 | 8.06362 | 1407 ft | 167 kts | 214° |
| 2026-05-05 16:46 | 48.75221 | 8.05401 | 2040 ft | 176 kts | 213° |
| 2026-05-05 16:46 | 48.74123 | 8.04361 | 2425 ft | 195 kts | 213° |
| 2026-05-05 16:47 | 48.72927 | 8.03237 | 2845 ft | 214 kts | 212° |
| 2026-05-05 16:47 | 48.71577 | 8.01989 | 3265 ft | 239 kts | 212° |
| 2026-05-05 16:47 | 48.70116 | 8.00659 | 4013 ft | 249 kts | 212° |
| 2026-05-05 16:47 | 48.68619 | 7.99299 | 4984 ft | 252 kts | 213° |
| 2026-05-05 16:48 | 48.67111 | 7.97927 | 5979 ft | 254 kts | 212° |
| 2026-05-05 16:48 | 48.65461 | 7.96957 | 6889 ft | 262 kts | 188° |
| 2026-05-05 16:48 | 48.63625 | 7.97272 | 7775 ft | 272 kts | 166° |
| 2026-05-05 16:48 | 48.61967 | 7.98736 | 8657 ft | 286 kts | 139° |
| 2026-05-05 16:49 | 48.60904 | 8.01326 | 9527 ft | 301 kts | 109° |
| 2026-05-05 16:49 | 48.60827 | 8.04513 | 10337 ft | 313 kts | 78° |
| 2026-05-05 16:49 | 48.61835 | 8.07427 | 11134 ft | 319 kts | 46° |
| 2026-05-05 16:49 | 48.63632 | 8.09473 | 11654 ft | 334 kts | 30° |
| 2026-05-05 16:50 | 48.65721 | 8.11270 | 11920 ft | 357 kts | 26° |
| 2026-05-05 16:50 | 48.68002 | 8.13050 | 12136 ft | 379 kts | 25° |
| 2026-05-05 16:50 | 48.70391 | 8.14865 | 12688 ft | 389 kts | 25° |
| 2026-05-05 16:50 | 48.72815 | 8.16728 | 13399 ft | 393 kts | 26° |
| 2026-05-05 16:51 | 48.75240 | 8.18643 | 14070 ft | 397 kts | 27° |
| 2026-05-05 16:51 | 48.77701 | 8.20651 | 14744 ft | 401 kts | 27° |
| 2026-05-05 16:51 | 48.80156 | 8.22699 | 15418 ft | 404 kts | 28° |
| 2026-05-05 16:51 | 48.82618 | 8.24777 | 16048 ft | 407 kts | 28° |
| 2026-05-05 16:52 | 48.85105 | 8.26880 | 16669 ft | 411 kts | 29° |
| 2026-05-05 16:52 | 48.87662 | 8.28854 | 17276 ft | 414 kts | 20° |
| 2026-05-05 16:52 | 48.90462 | 8.29840 | 17848 ft | 415 kts | 3° |
| 2026-05-05 16:52 | 48.93335 | 8.29526 | 18386 ft | 416 kts | 345° |
| 2026-05-05 16:53 | 48.96013 | 8.27915 | 18883 ft | 415 kts | 327° |
| 2026-05-05 16:53 | 48.98326 | 8.25305 | 19382 ft | 415 kts | 319° |
| 2026-05-05 16:53 | 49.00736 | 8.22847 | 19879 ft | 420 kts | 329° |
| 2026-05-05 16:53 | 49.03361 | 8.20833 | 20371 ft | 424 kts | 332° |
| 2026-05-05 16:54 | 49.06016 | 8.18838 | 20861 ft | 427 kts | 332° |
| 2026-05-05 16:54 | 49.08686 | 8.16828 | 21344 ft | 430 kts | 332° |
| 2026-05-05 16:54 | 49.11377 | 8.14800 | 21730 ft | 432 kts | 332° |
| 2026-05-05 16:54 | 49.14082 | 8.12760 | 21821 ft | 439 kts | 332° |
| 2026-05-05 16:55 | 49.16868 | 8.10661 | 21831 ft | 452 kts | 333° |
| 2026-05-05 16:55 | 49.19882 | 8.09205 | 21825 ft | 459 kts | 352° |
| 2026-05-05 16:55 | 49.23084 | 8.09271 | 21835 ft | 462 kts | 5° |
| 2026-05-05 16:55 | 49.26294 | 8.09528 | 21831 ft | 463 kts | 0° |
| 2026-05-05 16:56 | 49.29526 | 8.09555 | 21833 ft | 464 kts | 360° |
| 2026-05-05 16:56 | 49.32714 | 8.09573 | 21830 ft | 464 kts | 360° |
| 2026-05-05 16:56 | 49.35987 | 8.09570 | 21831 ft | 464 kts | 359° |
| 2026-05-05 16:56 | 49.39218 | 8.09543 | 21831 ft | 464 kts | 359° |
| 2026-05-05 16:57 | 49.42451 | 8.09500 | 21830 ft | 464 kts | 359° |
| 2026-05-05 16:57 | 49.45683 | 8.09455 | 21831 ft | 465 kts | 359° |
| 2026-05-05 16:57 | 49.48917 | 8.09414 | 21832 ft | 465 kts | 359° |
| 2026-05-05 16:57 | 49.52156 | 8.09380 | 21830 ft | 465 kts | 359° |
| 2026-05-05 16:58 | 49.55386 | 8.09356 | 21827 ft | 464 kts | 359° |
| 2026-05-05 16:58 | 49.58608 | 8.09341 | 21837 ft | 464 kts | 359° |
| 2026-05-05 16:58 | 49.61829 | 8.09326 | 21843 ft | 463 kts | 359° |
| 2026-05-05 16:58 | 49.65057 | 8.09302 | 21843 ft | 463 kts | 359° |
| 2026-05-05 16:59 | 49.68271 | 8.09274 | 21842 ft | 462 kts | 359° |
| 2026-05-05 16:59 | 49.71447 | 8.09246 | 21830 ft | 462 kts | 359° |
| 2026-05-05 16:59 | 49.74662 | 8.09217 | 21828 ft | 462 kts | 359° |
| 2026-05-05 16:59 | 49.77879 | 8.09189 | 21823 ft | 462 kts | 359° |
| 2026-05-05 17:00 | 49.80984 | 8.09164 | 21822 ft | 462 kts | 359° |
| 2026-05-05 17:00 | 49.84202 | 8.09138 | 21820 ft | 462 kts | 359° |
| 2026-05-05 17:00 | 49.87425 | 8.09113 | 21818 ft | 463 kts | 359° |
| 2026-05-05 17:00 | 49.90644 | 8.09090 | 21822 ft | 463 kts | 359° |
| 2026-05-05 17:01 | 49.93858 | 8.09063 | 21836 ft | 463 kts | 360° |
| 2026-05-05 17:01 | 49.97080 | 8.09034 | 21834 ft | 463 kts | 360° |
| 2026-05-05 17:01 | 50.00309 | 8.09005 | 21834 ft | 463 kts | 360° |
| 2026-05-05 17:01 | 50.03532 | 8.08976 | 21836 ft | 464 kts | 360° |
| 2026-05-05 17:02 | 50.06761 | 8.08947 | 21837 ft | 464 kts | 360° |
| 2026-05-05 17:02 | 50.09986 | 8.08916 | 21836 ft | 464 kts | 360° |
| 2026-05-05 17:02 | 50.13216 | 8.08884 | 21833 ft | 464 kts | 360° |
| 2026-05-05 17:02 | 50.16445 | 8.08855 | 21825 ft | 464 kts | 0° |
| 2026-05-05 17:03 | 50.19667 | 8.08831 | 21819 ft | 464 kts | 0° |
| 2026-05-05 17:03 | 50.22907 | 8.08808 | 21817 ft | 465 kts | 0° |
| 2026-05-05 17:03 | 50.26141 | 8.08785 | 21814 ft | 465 kts | 0° |
| 2026-05-05 17:03 | 50.29367 | 8.08758 | 21813 ft | 465 kts | 0° |
| 2026-05-05 17:04 | 50.32620 | 8.08729 | 21812 ft | 466 kts | 0° |
| 2026-05-05 17:04 | 50.35860 | 8.08702 | 21810 ft | 466 kts | 0° |
| 2026-05-05 17:04 | 50.39101 | 8.08664 | 21798 ft | 466 kts | 360° |
| 2026-05-05 17:04 | 50.42337 | 8.08598 | 21799 ft | 466 kts | 360° |
| 2026-05-05 17:05 | 50.45586 | 8.08513 | 21804 ft | 466 kts | 359° |
| 2026-05-05 17:05 | 50.48826 | 8.08420 | 21806 ft | 466 kts | 359° |
| 2026-05-05 17:05 | 50.52069 | 8.08323 | 21780 ft | 467 kts | 359° |
| 2026-05-05 17:05 | 50.55310 | 8.08232 | 21513 ft | 465 kts | 359° |
| 2026-05-05 17:06 | 50.58513 | 8.08147 | 20931 ft | 458 kts | 359° |
| 2026-05-05 17:06 | 50.61681 | 8.08069 | 20227 ft | 453 kts | 359° |
| 2026-05-05 17:06 | 50.64824 | 8.07995 | 19573 ft | 448 kts | 359° |
| 2026-05-05 17:06 | 50.67921 | 8.08143 | 18920 ft | 443 kts | 7° |
| 2026-05-05 17:07 | 50.70734 | 8.08974 | 18328 ft | 437 kts | 16° |
| 2026-05-05 17:07 | 50.73684 | 8.10658 | 17601 ft | 432 kts | 26° |
| 2026-05-05 17:07 | 50.76305 | 8.12896 | 16901 ft | 426 kts | 31° |
| 2026-05-05 17:07 | 50.78860 | 8.15203 | 16232 ft | 422 kts | 31° |
| 2026-05-05 17:08 | 50.81399 | 8.17493 | 15591 ft | 417 kts | 31° |
| 2026-05-05 17:08 | 50.83910 | 8.19753 | 14965 ft | 413 kts | 30° |
| 2026-05-05 17:08 | 50.86396 | 8.21986 | 14348 ft | 409 kts | 31° |
| 2026-05-05 17:08 | 50.88860 | 8.24201 | 13746 ft | 405 kts | 30° |
| 2026-05-05 17:09 | 50.91299 | 8.26397 | 13098 ft | 401 kts | 30° |
| 2026-05-05 17:09 | 50.93706 | 8.28569 | 12415 ft | 396 kts | 30° |
| 2026-05-05 17:09 | 50.96088 | 8.30723 | 11743 ft | 393 kts | 30° |
| 2026-05-05 17:09 | 50.98447 | 8.32862 | 11224 ft | 385 kts | 31° |
| 2026-05-05 17:10 | 51.00730 | 8.34935 | 10966 ft | 370 kts | 31° |
| 2026-05-05 17:10 | 51.02882 | 8.36889 | 10713 ft | 343 kts | 31° |
| 2026-05-05 17:10 | 51.04878 | 8.38705 | 10467 ft | 319 kts | 30° |
| 2026-05-05 17:10 | 51.06741 | 8.40401 | 10204 ft | 301 kts | 30° |
| 2026-05-05 17:11 | 51.08529 | 8.42032 | 9686 ft | 294 kts | 30° |
| 2026-05-05 17:11 | 51.10289 | 8.43642 | 9051 ft | 290 kts | 30° |
| 2026-05-05 17:11 | 51.12031 | 8.45238 | 8396 ft | 287 kts | 30° |
| 2026-05-05 17:11 | 51.13756 | 8.46816 | 7760 ft | 284 kts | 30° |
| 2026-05-05 17:12 | 51.15461 | 8.48376 | 7107 ft | 281 kts | 31° |
| 2026-05-05 17:12 | 51.17151 | 8.49928 | 6486 ft | 279 kts | 30° |
| 2026-05-05 17:12 | 51.18826 | 8.51467 | 5844 ft | 276 kts | 30° |
| 2026-05-05 17:12 | 51.20436 | 8.52946 | 5632 ft | 257 kts | 30° |
| 2026-05-05 17:13 | 51.22054 | 8.53882 | 5315 ft | 244 kts | 1° |
| 2026-05-05 17:13 | 51.23668 | 8.53299 | 4835 ft | 238 kts | 334° |
| 2026-05-05 17:13 | 51.25166 | 8.52179 | 4294 ft | 237 kts | 335° |
| 2026-05-05 17:13 | 51.26664 | 8.51099 | 3821 ft | 234 kts | 338° |
| 2026-05-05 17:14 | 51.28144 | 8.50052 | 3570 ft | 233 kts | 338° |
| 2026-05-05 17:14 | 51.29633 | 8.49010 | 3312 ft | 233 kts | 339° |
| 2026-05-05 17:14 | 51.31118 | 8.47975 | 3092 ft | 232 kts | 338° |
| 2026-05-05 17:14 | 51.32596 | 8.46942 | 2981 ft | 231 kts | 338° |
| 2026-05-05 17:15 | 51.34047 | 8.45916 | 3233 ft | 235 kts | 338° |
| 2026-05-05 17:15 | 51.35538 | 8.44865 | 3107 ft | 232 kts | 338° |
| 2026-05-05 17:15 | 51.37020 | 8.43837 | 3004 ft | 231 kts | 338° |
| 2026-05-05 17:15 | 51.38477 | 8.42828 | 3007 ft | 232 kts | 339° |
| 2026-05-05 17:16 | 51.39946 | 8.41811 | 3001 ft | 229 kts | 339° |
| 2026-05-05 17:16 | 51.41408 | 8.40794 | 2994 ft | 230 kts | 338° |
| 2026-05-05 17:16 | 51.42881 | 8.39766 | 3002 ft | 230 kts | 338° |
| 2026-05-05 17:16 | 51.44311 | 8.38761 | 3002 ft | 219 kts | 338° |
| 2026-05-05 17:17 | 51.45697 | 8.37783 | 3003 ft | 214 kts | 338° |
| 2026-05-05 17:17 | 51.47044 | 8.36973 | 2997 ft | 200 kts | 355° |
| 2026-05-05 17:17 | 51.48382 | 8.37215 | 3003 ft | 194 kts | 15° |
| 2026-05-05 17:17 | 51.49663 | 8.37681 | 3025 ft | 180 kts | 14° |
| 2026-05-05 17:18 | 51.50823 | 8.38087 | 3006 ft | 162 kts | 14° |
| 2026-05-05 17:18 | 51.51804 | 8.38733 | 2990 ft | 145 kts | 37° |
| 2026-05-05 17:18 | 51.52490 | 8.39859 | 3015 ft | 139 kts | 57° |
| 2026-05-05 17:18 | 51.53029 | 8.41172 | 3010 ft | 145 kts | 56° |
| 2026-05-05 17:19 | 51.53571 | 8.42491 | 3043 ft | 137 kts | 56° |
| 2026-05-05 17:19 | 51.54096 | 8.43767 | 3010 ft | 138 kts | 56° |
| 2026-05-05 17:19 | 51.54622 | 8.45051 | 2915 ft | 136 kts | 56° |
| 2026-05-05 17:19 | 51.55142 | 8.46316 | 2768 ft | 134 kts | 58° |
| 2026-05-05 17:20 | 51.55653 | 8.47561 | 2612 ft | 134 kts | 57° |
| 2026-05-05 17:20 | 51.56168 | 8.48816 | 2437 ft | 134 kts | 57° |
| 2026-05-05 17:20 | 51.56676 | 8.50056 | 2266 ft | 132 kts | 56° |
| 2026-05-05 17:20 | 51.57182 | 8.51290 | 2085 ft | 133 kts | 56° |
| 2026-05-05 17:21 | 51.57687 | 8.52523 | 1904 ft | 132 kts | 55° |
| 2026-05-05 17:21 | 51.58189 | 8.53749 | 1713 ft | 133 kts | 54° |
| 2026-05-05 17:21 | 51.58696 | 8.54993 | 1540 ft | 134 kts | 54° |
| 2026-05-05 17:22 | 51.59729 | 8.57525 | 1160 ft | 136 kts | 54° |
| 2026-05-05 17:22 | 51.60252 | 8.58780 | 989 ft | 135 kts | 55° |
| 2026-05-05 17:22 | 51.60764 | 8.60044 | 755 ft | 134 kts | 55° |
| 2026-05-05 17:22 | 51.61227 | 8.61189 | 716 ft | 106 kts | 57° |
| 2026-05-05 17:23 | 51.61536 | 8.61945 | 698 ft | 56 kts | 57° |
| 2026-05-05 17:23 | 51.61720 | 8.62394 | 691 ft | 45 kts | 56° |
| 2026-05-05 17:23 | 51.61875 | 8.62777 | 683 ft | 28 kts | 57° |
| 2026-05-05 17:23 | 51.61914 | 8.62967 | 683 ft | 18 kts | 96° |
| 2026-05-05 17:24 | 51.61828 | 8.63067 | 683 ft | 16 kts | 188° |
| 2026-05-05 17:24 | 51.61753 | 8.62960 | 680 ft | 14 kts | 236° |
| 2026-05-05 17:24 | 51.61691 | 8.62808 | 691 ft | 20 kts | 237° |
| 2026-05-05 17:24 | 51.61602 | 8.62592 | 689 ft | 24 kts | 237° |
| 2026-05-05 17:25 | 51.61517 | 8.62379 | 702 ft | 22 kts | 237° |
| 2026-05-05 17:25 | 51.61465 | 8.62248 | 716 ft | 20 kts | 237° |
| 2026-05-05 17:25 | 51.61353 | 8.62029 | 718 ft | 19 kts | 207° |
| 2026-05-05 17:25 | 51.61245 | 8.61981 | 728 ft | 11 kts | 191° |
| 2026-05-05 17:26 | 51.61197 | 8.61954 | 729 ft | 8 kts | 218° |
| 2026-05-05 17:26 | 51.61164 | 8.61886 | 731 ft | 1 kts | 216° |
| 2026-05-05 17:26 | 51.61149 | 8.61896 | 731 ft | 5 kts | 149° |
| 2026-05-05 17:26 | 51.61125 | 8.61922 | 731 ft | 3 kts | 147° |
| 2026-05-05 17:27 | 51.61115 | 8.61932 | 731 ft | 1 kts | 147° |
| 2026-05-05 17:27 | 51.61113 | 8.61933 | 731 ft | 0 kts | 147° |